createdAt,value
2018-02-11T00:00:39.414Z,59.10
2018-02-11T00:03:07.868Z,56.72
2018-02-11T00:05:36.233Z,58.27
2018-02-11T00:08:04.631Z,56.34
2018-02-11T00:10:33.012Z,54.70
2018-02-11T00:13:01.379Z,54.30
2018-02-11T00:15:29.797Z,56.43
2018-02-11T00:17:58.178Z,52.35
2018-02-11T00:20:26.552Z,53.54
2018-02-11T00:22:54.921Z,53.57
2018-02-11T00:25:23.282Z,54.95
2018-02-11T00:27:51.716Z,56.78
2018-02-11T00:30:20.092Z,56.71
2018-02-11T00:32:48.644Z,57.40
2018-02-11T00:35:17.005Z,53.84
2018-02-11T00:37:51.916Z,53.73
2018-02-11T00:40:20.294Z,54.91
2018-02-11T00:42:48.668Z,54.64
2018-02-11T00:45:17.039Z,53.88
2018-02-11T00:47:45.450Z,54.91
2018-02-11T00:50:14.159Z,57.81
2018-02-11T00:52:42.522Z,56.94
2018-02-11T00:55:10.902Z,54.55
2018-02-11T00:57:39.275Z,54.34
2018-02-11T01:00:07.632Z,54.20
2018-02-11T01:02:36.036Z,53.86
2018-02-11T01:05:04.427Z,54.43
2018-02-11T01:07:32.953Z,55.16
2018-02-11T01:10:01.335Z,55.14
2018-02-11T01:12:29.711Z,57.19
2018-02-11T01:14:58.231Z,56.57
2018-02-11T01:17:26.590Z,57.02
2018-02-11T01:19:54.945Z,54.25
2018-02-11T01:22:23.330Z,53.25
2018-02-11T01:24:51.717Z,52.26
2018-02-11T01:27:20.124Z,54.56
2018-02-11T01:29:48.495Z,56.16
2018-02-11T01:32:16.855Z,57.35
2018-02-11T01:34:45.250Z,59.70
2018-02-11T01:37:13.593Z,59.90
2018-02-11T01:39:42.054Z,62.74
2018-02-11T01:42:10.416Z,60.85
2018-02-11T01:44:38.784Z,61.22
2018-02-11T01:47:07.144Z,62.96
2018-02-11T01:49:35.554Z,62.87
2018-02-11T01:52:04.271Z,64.41
2018-02-11T01:54:32.641Z,63.65
2018-02-11T01:57:01.005Z,64.25
2018-02-11T01:59:29.403Z,63.11
2018-02-11T02:01:57.773Z,63.96
2018-02-11T02:04:26.143Z,64.50
2018-02-11T02:06:54.491Z,64.46
2018-02-11T02:09:22.832Z,65.37
2018-02-11T02:11:51.215Z,65.82
2018-02-11T02:14:19.661Z,66.85
2018-02-11T02:16:48.021Z,65.29
2018-02-11T02:19:16.381Z,65.22
2018-02-11T02:21:44.758Z,65.77
2018-02-11T02:24:13.122Z,65.54
2018-02-11T02:26:41.640Z,65.56
2018-02-11T02:29:10.001Z,64.39
2018-02-11T02:31:38.355Z,67.02
2018-02-11T02:34:06.714Z,64.82
2018-02-11T02:36:35.067Z,67.42
2018-02-11T02:39:03.592Z,65.56
2018-02-11T02:41:31.950Z,65.36
2018-02-11T02:44:00.343Z,65.43
2018-02-11T02:46:28.737Z,65.74
2018-02-11T02:48:57.121Z,65.10
2018-02-11T02:51:25.550Z,65.52
2018-02-11T02:53:53.924Z,67.90
2018-02-11T02:56:22.295Z,68.84
2018-02-11T02:58:50.655Z,68.41
2018-02-11T03:01:19.051Z,68.12
2018-02-11T03:03:47.597Z,64.98
2018-02-11T03:06:15.952Z,67.77
2018-02-11T03:08:44.313Z,68.17
2018-02-11T03:11:12.707Z,66.67
2018-02-11T03:13:41.264Z,68.78
2018-02-11T03:16:09.627Z,66.95
2018-02-11T03:18:37.991Z,68.17
2018-02-11T03:21:06.355Z,69.98
2018-02-11T03:23:34.724Z,69.05
2018-02-11T03:26:03.098Z,65.37
2018-02-11T03:28:31.451Z,66.13
2018-02-11T03:30:59.802Z,66.39
2018-02-11T03:33:28.194Z,67.08
2018-02-11T03:35:56.563Z,65.70
2018-02-11T03:38:25.192Z,65.49
2018-02-11T03:40:53.562Z,65.66
2018-02-11T03:43:21.913Z,62.91
2018-02-11T03:45:50.281Z,65.32
2018-02-11T03:50:46.124Z,67.48
2018-02-11T03:53:14.526Z,65.35
2018-02-11T03:55:42.888Z,67.73
2018-02-11T03:58:11.241Z,67.74
2018-02-11T04:00:39.599Z,70.65
2018-02-11T04:03:07.955Z,69.82
2018-02-11T04:05:36.337Z,70.79
2018-02-11T04:08:04.685Z,69.24
2018-02-11T04:10:33.177Z,68.02
2018-02-11T04:13:01.547Z,70.29
2018-02-11T04:15:29.911Z,67.42
2018-02-11T04:17:58.272Z,69.20
2018-02-11T04:20:26.630Z,68.20
2018-02-11T04:22:55.042Z,68.79
2018-02-11T04:25:23.511Z,68.73
2018-02-11T04:27:51.881Z,68.79
2018-02-11T04:30:20.269Z,67.96
2018-02-11T04:32:48.643Z,68.30
2018-02-11T04:35:17.058Z,67.62
2018-02-11T04:37:45.414Z,69.88
2018-02-11T04:40:13.775Z,68.53
2018-02-11T04:42:42.147Z,68.69
2018-02-11T04:45:10.503Z,66.46
2018-02-11T04:47:38.864Z,70.25
2018-02-11T04:50:07.236Z,70.00
2018-02-11T04:52:35.624Z,69.35
2018-02-11T04:55:03.987Z,70.04
2018-02-11T04:57:32.460Z,70.78
2018-02-11T05:00:00.854Z,71.24
2018-02-11T05:02:29.243Z,68.72
2018-02-11T05:04:57.769Z,69.28
2018-02-11T05:07:26.153Z,68.55
2018-02-11T05:09:54.549Z,69.02
2018-02-11T05:12:23.000Z,70.37
2018-02-11T05:14:51.398Z,69.26
2018-02-11T05:17:19.791Z,71.04
2018-02-11T05:19:48.405Z,70.34
2018-02-11T05:22:16.794Z,69.46
2018-02-11T05:24:45.184Z,72.36
2018-02-11T05:27:13.650Z,68.59
2018-02-11T05:29:42.027Z,70.67
2018-02-11T05:32:10.440Z,68.18
2018-02-11T05:34:38.885Z,68.41
2018-02-11T05:37:07.278Z,69.80
2018-02-11T05:39:35.690Z,68.52
2018-02-11T05:42:04.130Z,70.81
2018-02-11T05:44:32.525Z,72.44
2018-02-11T05:47:00.913Z,72.19
2018-02-11T05:49:29.320Z,71.49
2018-02-11T05:51:57.755Z,70.81
2018-02-11T05:54:26.197Z,72.62
2018-02-11T05:56:54.575Z,70.82
2018-02-11T05:59:23.239Z,72.31
2018-02-11T06:01:51.605Z,75.22
2018-02-11T06:04:20.013Z,73.53
2018-02-11T06:06:48.432Z,70.37
2018-02-11T06:09:16.822Z,72.74
2018-02-11T06:11:45.274Z,72.68
2018-02-11T06:14:13.653Z,71.77
2018-02-11T06:16:42.058Z,71.18
2018-02-11T06:19:10.440Z,71.57
2018-02-11T06:21:38.843Z,72.22
2018-02-11T06:24:07.394Z,73.30
2018-02-11T06:26:42.596Z,71.54
2018-02-11T06:29:11.076Z,73.35
2018-02-11T06:31:39.554Z,70.81
2018-02-11T06:34:07.931Z,70.93
2018-02-11T06:36:36.420Z,68.43
2018-02-11T06:39:04.807Z,71.21
2018-02-11T06:41:33.200Z,72.26
2018-02-11T06:44:01.650Z,70.07
2018-02-11T06:46:30.039Z,71.30
2018-02-11T06:48:58.527Z,71.62
2018-02-11T06:51:26.969Z,71.83
2018-02-11T06:53:55.386Z,72.36
2018-02-11T06:56:23.769Z,72.18
2018-02-11T06:58:52.210Z,70.59
2018-02-11T07:01:20.622Z,71.31
2018-02-11T07:03:49.098Z,72.53
2018-02-11T07:06:17.568Z,73.66
2018-02-11T07:08:45.976Z,72.25
2018-02-11T07:11:14.354Z,71.27
2018-02-11T07:13:42.827Z,72.23
2018-02-11T07:16:11.213Z,71.67
2018-02-11T07:18:39.610Z,71.26
2018-02-11T07:21:07.998Z,70.40
2018-02-11T07:23:36.401Z,69.08
2018-02-11T07:26:04.865Z,71.17
2018-02-11T07:28:33.269Z,69.80
2018-02-11T07:31:01.745Z,68.07
2018-02-11T07:33:30.193Z,69.01
2018-02-11T07:35:58.579Z,69.08
2018-02-11T07:38:26.963Z,68.99
2018-02-11T07:40:55.425Z,67.20
2018-02-11T07:43:23.824Z,69.43
2018-02-11T07:45:52.215Z,68.64
2018-02-11T07:48:20.633Z,68.05
2018-02-11T07:50:49.420Z,68.59
2018-02-11T07:53:17.823Z,69.11
2018-02-11T07:55:46.201Z,69.62
2018-02-11T07:58:14.592Z,68.50
2018-02-11T08:00:43.033Z,69.77
2018-02-11T08:03:11.413Z,70.07
2018-02-11T08:05:39.822Z,69.49
2018-02-11T08:08:08.239Z,69.11
2018-02-11T08:10:36.630Z,68.43
2018-02-11T08:13:05.208Z,68.76
2018-02-11T08:15:33.584Z,67.43
2018-02-11T08:18:01.990Z,67.99
2018-02-11T08:20:30.423Z,68.11
2018-02-11T08:22:58.831Z,68.79
2018-02-11T08:25:27.228Z,66.89
2018-02-11T08:27:55.609Z,68.06
2018-02-11T08:30:24.129Z,66.98
2018-02-11T08:32:52.532Z,64.39
2018-02-11T08:35:20.930Z,64.32
2018-02-11T08:37:49.353Z,63.50
2018-02-11T08:40:17.730Z,64.50
2018-02-11T08:42:46.207Z,62.19
2018-02-11T08:45:14.599Z,66.45
2018-02-11T08:47:43.089Z,67.18
2018-02-11T08:50:11.498Z,67.44
2018-02-11T08:52:39.899Z,69.06
2018-02-11T08:55:08.333Z,68.81
2018-02-11T08:57:36.786Z,68.89
2018-02-11T09:00:05.185Z,69.15
2018-02-11T09:02:33.585Z,68.18
2018-02-11T09:05:02.043Z,66.55
2018-02-11T09:09:58.001Z,66.92
2018-02-11T09:12:26.439Z,64.24
2018-02-11T09:14:54.846Z,63.11
2018-02-11T09:17:23.396Z,64.01
2018-02-11T09:19:51.811Z,64.15
2018-02-11T09:22:20.473Z,64.06
2018-02-11T09:24:48.865Z,67.12
2018-02-11T09:27:17.391Z,65.84
2018-02-11T09:29:45.843Z,64.49
2018-02-11T09:32:14.269Z,65.20
2018-02-11T09:34:42.660Z,65.39
2018-02-11T09:37:11.057Z,61.34
2018-02-11T09:39:39.488Z,64.75
2018-02-11T09:42:08.321Z,64.66
2018-02-11T09:44:36.758Z,66.32
2018-02-11T09:47:05.231Z,63.52
2018-02-11T09:49:33.644Z,66.16
2018-02-11T09:52:02.043Z,63.50
2018-02-11T09:54:30.430Z,65.76
2018-02-11T09:56:58.843Z,64.87
2018-02-11T09:59:27.319Z,64.17
2018-02-11T10:01:55.722Z,67.13
2018-02-11T10:04:24.139Z,65.60
2018-02-11T10:06:52.531Z,67.26
2018-02-11T10:11:55.542Z,67.02
2018-02-11T10:14:23.957Z,66.23
2018-02-11T10:16:52.373Z,66.49
2018-02-11T10:19:20.785Z,67.41
2018-02-11T10:21:49.238Z,65.04
2018-02-11T10:24:17.648Z,69.23
2018-02-11T10:26:46.114Z,69.70
2018-02-11T10:29:14.578Z,68.68
2018-02-11T10:31:42.974Z,67.69
2018-02-11T10:34:11.411Z,68.09
2018-02-11T10:36:39.963Z,64.60
2018-02-11T10:39:08.368Z,66.33
2018-02-11T10:41:36.768Z,66.92
2018-02-11T10:44:05.164Z,69.81
2018-02-11T10:46:33.681Z,66.84
2018-02-11T10:49:02.186Z,65.28
2018-02-11T10:51:30.686Z,66.76
2018-02-11T10:53:59.068Z,67.01
2018-02-11T10:56:27.483Z,65.46
2018-02-11T10:58:56.244Z,66.74
2018-02-11T11:01:24.730Z,64.49
2018-02-11T11:03:53.190Z,64.44
2018-02-11T11:06:21.592Z,65.34
2018-02-11T11:08:50.090Z,65.98
2018-02-11T11:11:18.688Z,67.46
2018-02-11T11:13:47.150Z,66.06
2018-02-11T11:16:15.579Z,65.31
2018-02-11T11:18:43.996Z,67.59
2018-02-11T11:21:12.471Z,66.28
2018-02-11T11:23:40.862Z,65.88
2018-02-11T11:26:09.283Z,69.00
2018-02-11T11:28:37.677Z,68.47
2018-02-11T11:31:06.103Z,68.72
2018-02-11T11:33:34.595Z,67.26
2018-02-11T11:36:02.998Z,68.23
2018-02-11T11:38:31.377Z,68.50
2018-02-11T11:40:59.949Z,68.96
2018-02-11T11:43:28.425Z,69.08
2018-02-11T11:45:56.820Z,67.47
2018-02-11T11:48:25.214Z,69.12
2018-02-11T11:50:53.609Z,68.26
2018-02-11T11:53:22.002Z,70.19
2018-02-11T11:55:50.493Z,68.68
2018-02-11T11:58:18.909Z,67.03
2018-02-11T12:00:47.335Z,67.45
2018-02-11T12:03:15.736Z,67.97
2018-02-11T12:05:44.248Z,69.40
2018-02-11T12:08:12.682Z,69.03
2018-02-11T12:10:41.096Z,67.15
2018-02-11T12:13:09.570Z,66.65
2018-02-11T12:15:37.980Z,66.87
2018-02-11T12:18:06.509Z,65.89
2018-02-11T12:20:34.939Z,66.24
2018-02-11T12:23:03.440Z,66.40
2018-02-11T12:25:31.989Z,65.10
2018-02-11T12:28:00.390Z,67.99
2018-02-11T12:30:28.810Z,67.64
2018-02-11T12:32:57.202Z,66.00
2018-02-11T12:35:25.634Z,67.13
2018-02-11T12:37:54.205Z,65.75
2018-02-11T12:40:22.633Z,64.56
2018-02-11T12:42:51.101Z,69.75
2018-02-11T12:45:19.494Z,68.43
2018-02-11T12:47:47.898Z,69.14
2018-02-11T12:50:16.290Z,67.53
2018-02-11T12:52:44.717Z,67.88
2018-02-11T12:55:13.253Z,67.18
2018-02-11T12:57:41.670Z,68.38
2018-02-11T13:00:10.067Z,68.79
2018-02-11T13:02:38.458Z,67.41
2018-02-11T13:05:06.849Z,67.93
2018-02-11T13:07:35.318Z,69.24
2018-02-11T13:10:03.724Z,66.62
2018-02-11T13:12:32.171Z,66.92
2018-02-11T13:15:00.582Z,65.21
2018-02-11T13:17:28.963Z,65.57
2018-02-11T13:19:57.364Z,65.33
2018-02-11T13:22:25.857Z,68.53
2018-02-11T13:24:54.301Z,68.61
2018-02-11T13:27:22.725Z,69.43
2018-02-11T13:29:51.129Z,67.12
2018-02-11T13:32:19.531Z,69.90
2018-02-11T13:34:48.017Z,70.35
2018-02-11T13:37:16.435Z,68.93
2018-02-11T13:39:44.945Z,66.96
2018-02-11T13:42:13.355Z,68.59
2018-02-11T13:44:41.774Z,68.84
2018-02-11T13:47:10.241Z,68.83
2018-02-11T13:49:38.666Z,68.76
2018-02-11T13:52:07.092Z,67.16
2018-02-11T13:54:35.514Z,68.54
2018-02-11T13:57:03.912Z,68.26
2018-02-11T13:59:32.360Z,67.85
2018-02-11T14:02:00.764Z,67.52
2018-02-11T14:04:30.231Z,67.55
2018-02-11T14:06:58.671Z,68.06
2018-02-11T14:09:27.103Z,69.27
2018-02-11T14:11:55.497Z,66.62
2018-02-11T14:14:23.921Z,68.64
2018-02-11T14:16:52.392Z,67.93
2018-02-11T14:19:21.001Z,69.26
2018-02-11T14:21:49.469Z,69.50
2018-02-11T14:24:17.843Z,68.60
2018-02-11T14:26:46.429Z,68.56
2018-02-11T14:29:15.083Z,70.39
2018-02-11T14:31:43.540Z,66.94
2018-02-11T14:34:12.042Z,68.51
2018-02-11T14:36:41.505Z,66.19
2018-02-11T14:39:09.998Z,66.42
2018-02-11T14:41:38.550Z,68.40
2018-02-11T14:44:06.973Z,66.35
2018-02-11T14:46:35.378Z,66.15
2018-02-11T14:49:03.797Z,70.70
2018-02-11T14:51:32.227Z,68.07
2018-02-11T14:54:00.716Z,66.25
2018-02-11T14:56:29.130Z,65.03
2018-02-11T14:58:57.548Z,64.92
2018-02-11T15:01:26.060Z,66.70
2018-02-11T15:03:54.459Z,67.10
2018-02-11T15:06:22.929Z,65.30
2018-02-11T15:08:51.357Z,65.12
2018-02-11T15:11:19.905Z,63.45
2018-02-11T15:13:48.303Z,63.33
2018-02-11T15:16:16.713Z,64.99
2018-02-11T15:18:45.102Z,63.32
2018-02-11T15:21:13.506Z,65.56
2018-02-11T15:23:42.098Z,64.27
2018-02-11T15:26:10.496Z,63.75
2018-02-11T15:28:38.914Z,60.60
2018-02-11T15:31:07.390Z,60.99
2018-02-11T15:33:35.888Z,60.35
2018-02-11T15:36:04.452Z,60.01
2018-02-11T15:38:32.881Z,61.16
2018-02-11T15:41:01.371Z,60.76
2018-02-11T15:43:29.762Z,64.97
2018-02-11T15:45:58.168Z,63.98
2018-02-11T15:48:26.567Z,64.10
2018-02-11T15:50:55.013Z,65.81
2018-02-11T15:53:23.470Z,62.37
2018-02-11T15:55:51.890Z,64.00
2018-02-11T15:58:20.306Z,59.93
2018-02-11T16:00:48.738Z,60.92
2018-02-11T16:03:17.171Z,61.15
2018-02-11T16:05:45.607Z,61.69
2018-02-11T16:08:14.003Z,61.22
2018-02-11T16:10:42.650Z,60.67
2018-02-11T16:13:11.091Z,61.47
2018-02-11T16:15:39.496Z,61.99
2018-02-11T16:18:07.910Z,60.68
2018-02-11T16:20:36.310Z,61.76
2018-02-11T16:23:05.092Z,58.98
2018-02-11T16:25:33.479Z,58.34
2018-02-11T16:28:01.883Z,61.10
2018-02-11T16:30:30.303Z,59.98
2018-02-11T16:32:58.711Z,57.50
2018-02-11T16:35:27.135Z,60.29
2018-02-11T16:37:55.589Z,63.46
2018-02-11T16:40:24.057Z,61.36
2018-02-11T16:42:52.569Z,62.69
2018-02-11T16:45:22.301Z,61.04
2018-02-11T16:47:50.707Z,62.52
2018-02-11T16:50:19.149Z,60.61
2018-02-11T16:52:47.660Z,63.13
2018-02-11T16:55:16.047Z,62.33
2018-02-11T16:57:44.481Z,60.42
2018-02-11T17:00:12.894Z,62.40
2018-02-11T17:02:41.334Z,59.69
2018-02-11T17:05:09.911Z,60.83
2018-02-11T17:07:38.316Z,60.16
2018-02-11T17:10:06.792Z,60.17
2018-02-11T17:12:35.219Z,59.10
2018-02-11T17:15:03.708Z,57.71
2018-02-11T17:17:32.319Z,61.39
2018-02-11T17:20:00.822Z,60.10
2018-02-11T17:22:29.356Z,59.07
2018-02-11T17:24:57.751Z,59.31
2018-02-11T17:27:26.148Z,60.88
2018-02-11T17:29:54.628Z,59.57
2018-02-11T17:32:23.115Z,58.70
2018-02-11T17:34:51.527Z,61.64
2018-02-11T17:37:19.925Z,59.73
2018-02-11T17:39:48.466Z,60.66
2018-02-11T17:42:17.223Z,58.39
2018-02-11T17:44:45.634Z,61.41
2018-02-11T17:47:14.066Z,62.57
2018-02-11T17:49:42.486Z,61.17
2018-02-11T17:52:10.908Z,61.96
2018-02-11T17:54:39.526Z,60.21
2018-02-11T17:57:07.950Z,56.97
2018-02-11T17:59:36.372Z,61.08
2018-02-11T18:02:05.229Z,60.88
2018-02-11T18:04:33.710Z,60.41
2018-02-11T18:07:02.189Z,60.73
2018-02-11T18:09:30.579Z,60.68
2018-02-11T18:11:58.975Z,62.05
2018-02-11T18:14:27.366Z,60.68
2018-02-11T18:16:55.782Z,60.12
2018-02-11T18:19:24.227Z,61.20
2018-02-11T18:21:52.640Z,59.80
2018-02-11T18:24:21.445Z,59.36
2018-02-11T18:26:49.934Z,59.81
2018-02-11T18:29:18.334Z,60.15
2018-02-11T18:31:46.817Z,58.98
2018-02-11T18:34:15.217Z,61.49
2018-02-11T18:36:43.782Z,59.31
2018-02-11T18:39:12.200Z,58.26
2018-02-11T18:41:40.619Z,57.05
2018-02-11T18:44:09.040Z,60.41
2018-02-11T18:46:37.537Z,60.34
2018-02-11T18:49:06.025Z,60.61
2018-02-11T18:51:34.450Z,59.17
2018-02-11T18:54:03.227Z,59.22
2018-02-11T18:56:31.681Z,60.65
2018-02-11T18:59:00.113Z,62.26
2018-02-11T19:01:28.555Z,63.27
2018-02-11T19:03:56.957Z,63.79
2018-02-11T19:06:25.467Z,63.36
2018-02-11T19:08:53.889Z,61.10
2018-02-11T19:11:22.323Z,59.14
2018-02-11T19:13:50.744Z,59.94
2018-02-11T19:16:19.241Z,61.71
2018-02-11T19:18:50.350Z,63.73
2018-02-11T19:21:18.769Z,60.45
2018-02-11T19:23:47.214Z,60.35
2018-02-11T19:26:15.646Z,61.31
2018-02-11T19:28:44.139Z,62.57
2018-02-11T19:31:12.624Z,59.16
2018-02-11T19:33:41.023Z,63.39
2018-02-11T19:36:10.574Z,61.34
2018-02-11T19:38:39.167Z,63.05
2018-02-11T19:41:07.725Z,62.49
2018-02-11T19:43:36.118Z,61.65
2018-02-11T19:46:04.597Z,61.36
2018-02-11T19:48:32.990Z,63.95
2018-02-11T19:51:02.387Z,61.53
2018-02-11T19:53:30.860Z,58.02
2018-02-11T19:55:59.245Z,56.54
2018-02-11T19:58:27.700Z,59.04
2018-02-11T20:00:56.100Z,60.38
2018-02-11T20:03:24.529Z,60.78
2018-02-11T20:05:52.992Z,64.89
2018-02-11T20:08:21.418Z,63.21
2018-02-11T20:10:49.811Z,62.66
2018-02-11T20:13:18.305Z,63.78
2018-02-11T20:15:46.689Z,62.35
2018-02-11T20:18:15.100Z,62.48
2018-02-11T20:20:43.490Z,61.78
2018-02-11T20:23:11.900Z,63.81
2018-02-11T20:25:40.399Z,61.58
2018-02-11T20:28:08.807Z,64.64
2018-02-11T20:30:37.339Z,63.29
2018-02-11T20:33:05.743Z,61.56
2018-02-11T20:35:34.259Z,61.45
2018-02-11T20:38:02.655Z,63.91
2018-02-11T20:40:31.060Z,61.92
2018-02-11T20:42:59.522Z,60.61
2018-02-11T20:45:27.919Z,61.64
2018-02-11T20:47:56.330Z,65.11
2018-02-11T20:50:24.725Z,64.00
2018-02-11T20:52:53.119Z,65.00
2018-02-11T20:55:21.680Z,62.70
2018-02-11T20:57:50.103Z,64.09
2018-02-11T21:00:18.590Z,65.64
2018-02-11T21:02:46.991Z,63.70
2018-02-11T21:05:15.387Z,64.36
2018-02-11T21:07:44.169Z,64.24
2018-02-11T21:12:47.292Z,64.25
2018-02-11T21:15:15.693Z,65.12
2018-02-11T21:17:44.091Z,63.39
2018-02-11T21:20:12.586Z,62.06
2018-02-11T21:22:40.987Z,63.48
2018-02-11T21:25:09.767Z,62.74
2018-02-11T21:27:38.154Z,63.56
2018-02-11T21:30:06.655Z,63.29
2018-02-11T21:32:35.052Z,63.84
2018-02-11T21:35:03.447Z,61.76
2018-02-11T21:37:32.192Z,65.15
2018-02-11T21:40:00.599Z,64.34
2018-02-11T21:42:29.015Z,62.65
2018-02-11T21:44:57.415Z,64.02
2018-02-11T21:47:25.816Z,64.54
2018-02-11T21:49:54.236Z,64.64
2018-02-11T21:52:23.397Z,63.35
2018-02-11T21:54:51.969Z,65.99
2018-02-11T21:57:20.381Z,65.16
2018-02-11T21:59:48.774Z,66.01
2018-02-11T22:02:17.183Z,65.24
2018-02-11T22:04:45.653Z,63.51
2018-02-11T22:07:14.253Z,63.96
2018-02-11T22:09:42.678Z,62.53
2018-02-11T22:12:11.090Z,63.25
2018-02-11T22:14:39.498Z,64.49
2018-02-11T22:17:07.911Z,64.84
2018-02-11T22:22:03.990Z,65.42
2018-02-11T22:24:32.374Z,65.01
2018-02-11T22:27:00.791Z,63.80
2018-02-11T22:29:29.191Z,64.26
2018-02-11T22:31:57.749Z,65.00
2018-02-11T22:34:26.167Z,65.15
2018-02-11T22:36:54.613Z,66.56
2018-02-11T22:39:23.179Z,65.04
2018-02-11T22:41:51.567Z,65.16
2018-02-11T22:44:20.085Z,64.51
2018-02-11T22:46:48.474Z,62.65
2018-02-11T22:49:16.955Z,64.19
2018-02-11T22:51:45.335Z,65.01
2018-02-11T22:54:13.756Z,63.61
2018-02-11T22:56:42.164Z,64.56
2018-02-11T22:59:10.632Z,64.98
2018-02-11T23:01:39.089Z,64.82
2018-02-11T23:04:07.510Z,65.87
2018-02-11T23:06:35.914Z,66.04
2018-02-11T23:09:04.319Z,65.85
2018-02-11T23:11:32.737Z,62.77
2018-02-11T23:14:01.174Z,61.86
2018-02-11T23:16:29.562Z,61.88
2018-02-11T23:18:57.965Z,64.08
2018-02-11T23:21:26.384Z,65.87
2018-02-11T23:23:54.805Z,63.41
2018-02-11T23:26:23.326Z,64.49
2018-02-11T23:28:51.699Z,66.13
2018-02-11T23:31:20.095Z,64.92
2018-02-11T23:33:48.496Z,65.71
2018-02-11T23:36:16.904Z,65.74
2018-02-11T23:38:45.381Z,65.63
2018-02-11T23:41:13.768Z,66.93
2018-02-11T23:43:42.284Z,66.43
2018-02-11T23:46:10.668Z,67.33
2018-02-11T23:48:39.224Z,66.66
2018-02-11T23:51:07.607Z,64.41
2018-02-11T23:53:36.173Z,66.68
2018-02-11T23:56:04.569Z,66.60
2018-02-11T23:58:33.045Z,67.62
